sensor_id;sensor_type;location;lat;lon;timestamp;P1;durP1;ratioP1;P2;durP2;ratioP2
61356;SDS011;47227;46.752;23.576;2023-12-20T00:01:47;28.30;;;12.20;;
61356;SDS011;47227;46.752;23.576;2023-12-20T00:04:15;26.90;;;12.50;;
61356;SDS011;47227;46.752;23.576;2023-12-20T00:06:44;25.90;;;11.60;;
61356;SDS011;47227;46.752;23.576;2023-12-20T00:09:15;27.80;;;12.70;;
61356;SDS011;47227;46.752;23.576;2023-12-20T00:11:43;27.50;;;12.80;;
61356;SDS011;47227;46.752;23.576;2023-12-20T00:14:12;28.50;;;13.20;;
61356;SDS011;47227;46.752;23.576;2023-12-20T00:16:40;27.90;;;12.80;;
61356;SDS011;47227;46.752;23.576;2023-12-20T00:19:09;32.30;;;12.70;;
61356;SDS011;47227;46.752;23.576;2023-12-20T00:21:37;39.10;;;11.20;;
61356;SDS011;47227;46.752;23.576;2023-12-20T00:24:06;32.40;;;11.60;;
61356;SDS011;47227;46.752;23.576;2023-12-20T00:26:34;36.80;;;13.10;;
61356;SDS011;47227;46.752;23.576;2023-12-20T00:29:03;43.00;;;12.90;;
61356;SDS011;47227;46.752;23.576;2023-12-20T00:31:31;33.80;;;11.80;;
61356;SDS011;47227;46.752;23.576;2023-12-20T00:34:00;36.60;;;13.50;;
61356;SDS011;47227;46.752;23.576;2023-12-20T00:36:28;45.10;;;11.50;;
61356;SDS011;47227;46.752;23.576;2023-12-20T00:38:57;53.00;;;13.30;;
61356;SDS011;47227;46.752;23.576;2023-12-20T00:41:26;36.30;;;12.60;;
61356;SDS011;47227;46.752;23.576;2023-12-20T00:43:54;61.80;;;12.40;;
61356;SDS011;47227;46.752;23.576;2023-12-20T00:46:23;72.60;;;13.10;;
61356;SDS011;47227;46.752;23.576;2023-12-20T00:48:52;63.00;;;13.90;;
61356;SDS011;47227;46.752;23.576;2023-12-20T00:51:20;58.70;;;15.10;;
61356;SDS011;47227;46.752;23.576;2023-12-20T00:53:50;32.10;;;12.30;;
61356;SDS011;47227;46.752;23.576;2023-12-20T00:56:22;39.60;;;12.90;;
61356;SDS011;47227;46.752;23.576;2023-12-20T00:58:51;42.10;;;12.80;;
61356;SDS011;47227;46.752;23.576;2023-12-20T01:01:21;30.40;;;13.70;;
61356;SDS011;47227;46.752;23.576;2023-12-20T01:03:50;31.20;;;13.00;;
61356;SDS011;47227;46.752;23.576;2023-12-20T01:06:19;33.90;;;13.10;;
61356;SDS011;47227;46.752;23.576;2023-12-20T01:08:48;27.80;;;12.10;;
61356;SDS011;47227;46.752;23.576;2023-12-20T01:11:16;28.50;;;12.50;;
61356;SDS011;47227;46.752;23.576;2023-12-20T01:13:45;31.10;;;12.70;;
61356;SDS011;47227;46.752;23.576;2023-12-20T01:16:13;33.10;;;13.00;;
61356;SDS011;47227;46.752;23.576;2023-12-20T01:18:42;29.90;;;12.50;;
61356;SDS011;47227;46.752;23.576;2023-12-20T01:21:10;27.10;;;12.10;;
61356;SDS011;47227;46.752;23.576;2023-12-20T01:23:39;30.30;;;12.90;;
61356;SDS011;47227;46.752;23.576;2023-12-20T01:26:07;29.40;;;12.70;;
61356;SDS011;47227;46.752;23.576;2023-12-20T01:28:36;35.40;;;13.10;;
61356;SDS011;47227;46.752;23.576;2023-12-20T01:31:05;29.80;;;12.90;;
61356;SDS011;47227;46.752;23.576;2023-12-20T01:33:34;30.40;;;13.50;;
61356;SDS011;47227;46.752;23.576;2023-12-20T01:36:03;31.10;;;13.30;;
61356;SDS011;47227;46.752;23.576;2023-12-20T01:38:32;53.70;;;12.50;;
61356;SDS011;47227;46.752;23.576;2023-12-20T01:41:00;31.90;;;11.70;;
61356;SDS011;47227;46.752;23.576;2023-12-20T01:43:29;29.60;;;12.30;;
61356;SDS011;47227;46.752;23.576;2023-12-20T01:46:07;28.10;;;12.10;;
61356;SDS011;47227;46.752;23.576;2023-12-20T01:48:36;35.50;;;13.80;;
61356;SDS011;47227;46.752;23.576;2023-12-20T01:51:06;28.00;;;11.70;;
61356;SDS011;47227;46.752;23.576;2023-12-20T01:53:35;24.60;;;11.30;;
61356;SDS011;47227;46.752;23.576;2023-12-20T01:56:04;28.70;;;10.50;;
61356;SDS011;47227;46.752;23.576;2023-12-20T01:58:33;22.30;;;10.50;;
61356;SDS011;47227;46.752;23.576;2023-12-20T02:01:02;25.10;;;11.40;;
61356;SDS011;47227;46.752;23.576;2023-12-20T02:03:30;21.60;;;10.10;;
61356;SDS011;47227;46.752;23.576;2023-12-20T02:05:59;24.10;;;10.60;;
61356;SDS011;47227;46.752;23.576;2023-12-20T02:08:27;32.10;;;11.20;;
61356;SDS011;47227;46.752;23.576;2023-12-20T02:10:56;24.60;;;10.80;;
61356;SDS011;47227;46.752;23.576;2023-12-20T02:13:24;21.10;;;9.80;;
61356;SDS011;47227;46.752;23.576;2023-12-20T02:15:54;25.30;;;10.80;;
61356;SDS011;47227;46.752;23.576;2023-12-20T02:18:23;22.40;;;10.20;;
61356;SDS011;47227;46.752;23.576;2023-12-20T02:20:52;26.10;;;11.70;;
61356;SDS011;47227;46.752;23.576;2023-12-20T02:23:21;24.90;;;11.30;;
61356;SDS011;47227;46.752;23.576;2023-12-20T02:25:50;26.70;;;12.10;;
61356;SDS011;47227;46.752;23.576;2023-12-20T02:28:18;23.50;;;11.40;;
61356;SDS011;47227;46.752;23.576;2023-12-20T02:30:47;41.00;;;12.80;;
61356;SDS011;47227;46.752;23.576;2023-12-20T02:33:17;28.20;;;11.50;;
61356;SDS011;47227;46.752;23.576;2023-12-20T02:35:46;50.70;;;12.90;;
61356;SDS011;47227;46.752;23.576;2023-12-20T02:38:15;27.40;;;11.90;;
61356;SDS011;47227;46.752;23.576;2023-12-20T02:40:44;35.10;;;12.20;;
61356;SDS011;47227;46.752;23.576;2023-12-20T02:43:16;28.30;;;10.00;;
61356;SDS011;47227;46.752;23.576;2023-12-20T02:45:45;26.10;;;10.20;;
61356;SDS011;47227;46.752;23.576;2023-12-20T02:48:14;44.90;;;10.90;;
61356;SDS011;47227;46.752;23.576;2023-12-20T02:50:42;26.10;;;10.50;;
61356;SDS011;47227;46.752;23.576;2023-12-20T02:53:11;32.80;;;11.20;;
61356;SDS011;47227;46.752;23.576;2023-12-20T02:55:39;26.50;;;10.60;;
61356;SDS011;47227;46.752;23.576;2023-12-20T02:58:08;25.10;;;11.00;;
61356;SDS011;47227;46.752;23.576;2023-12-20T03:00:36;24.10;;;10.60;;
61356;SDS011;47227;46.752;23.576;2023-12-20T03:03:05;28.70;;;11.60;;
61356;SDS011;47227;46.752;23.576;2023-12-20T03:05:33;29.90;;;11.30;;
61356;SDS011;47227;46.752;23.576;2023-12-20T03:08:02;28.50;;;11.60;;
61356;SDS011;47227;46.752;23.576;2023-12-20T03:10:30;32.20;;;11.60;;
61356;SDS011;47227;46.752;23.576;2023-12-20T03:12:59;34.00;;;11.70;;
61356;SDS011;47227;46.752;23.576;2023-12-20T03:15:28;28.20;;;12.00;;
61356;SDS011;47227;46.752;23.576;2023-12-20T03:17:56;28.10;;;13.00;;
61356;SDS011;47227;46.752;23.576;2023-12-20T03:20:27;22.80;;;11.20;;
61356;SDS011;47227;46.752;23.576;2023-12-20T03:22:55;33.60;;;11.50;;
61356;SDS011;47227;46.752;23.576;2023-12-20T03:25:24;28.80;;;11.00;;
61356;SDS011;47227;46.752;23.576;2023-12-20T03:27:53;20.60;;;10.60;;
61356;SDS011;47227;46.752;23.576;2023-12-20T03:30:21;40.40;;;10.20;;
61356;SDS011;47227;46.752;23.576;2023-12-20T03:32:49;43.20;;;9.80;;
61356;SDS011;47227;46.752;23.576;2023-12-20T03:35:18;28.20;;;11.20;;
61356;SDS011;47227;46.752;23.576;2023-12-20T03:37:47;56.90;;;10.90;;
61356;SDS011;47227;46.752;23.576;2023-12-20T03:40:15;31.60;;;10.70;;
61356;SDS011;47227;46.752;23.576;2023-12-20T03:42:44;24.10;;;10.70;;
61356;SDS011;47227;46.752;23.576;2023-12-20T03:45:12;31.10;;;11.00;;
61356;SDS011;47227;46.752;23.576;2023-12-20T03:47:41;28.80;;;12.20;;
61356;SDS011;47227;46.752;23.576;2023-12-20T03:50:10;27.50;;;11.70;;
61356;SDS011;47227;46.752;23.576;2023-12-20T03:52:39;31.50;;;11.70;;
61356;SDS011;47227;46.752;23.576;2023-12-20T03:55:07;30.20;;;12.50;;
61356;SDS011;47227;46.752;23.576;2023-12-20T03:57:36;29.10;;;12.10;;
61356;SDS011;47227;46.752;23.576;2023-12-20T04:00:05;27.50;;;11.50;;
61356;SDS011;47227;46.752;23.576;2023-12-20T04:02:41;26.80;;;11.90;;
61356;SDS011;47227;46.752;23.576;2023-12-20T04:05:10;25.00;;;10.80;;
61356;SDS011;47227;46.752;23.576;2023-12-20T04:07:38;26.20;;;11.60;;
61356;SDS011;47227;46.752;23.576;2023-12-20T04:10:08;25.80;;;10.90;;
61356;SDS011;47227;46.752;23.576;2023-12-20T04:12:36;27.10;;;11.40;;
61356;SDS011;47227;46.752;23.576;2023-12-20T04:15:05;30.30;;;12.00;;
61356;SDS011;47227;46.752;23.576;2023-12-20T04:17:37;23.40;;;10.20;;
61356;SDS011;47227;46.752;23.576;2023-12-20T04:20:06;22.80;;;10.80;;
61356;SDS011;47227;46.752;23.576;2023-12-20T04:22:36;21.20;;;10.10;;
61356;SDS011;47227;46.752;23.576;2023-12-20T04:25:04;22.00;;;9.10;;
61356;SDS011;47227;46.752;23.576;2023-12-20T04:27:33;23.30;;;10.10;;
61356;SDS011;47227;46.752;23.576;2023-12-20T04:30:01;19.40;;;9.90;;
61356;SDS011;47227;46.752;23.576;2023-12-20T04:32:31;20.40;;;9.70;;
61356;SDS011;47227;46.752;23.576;2023-12-20T04:34:59;25.40;;;11.70;;
61356;SDS011;47227;46.752;23.576;2023-12-20T04:37:28;23.20;;;10.30;;
61356;SDS011;47227;46.752;23.576;2023-12-20T04:39:56;20.50;;;10.00;;
61356;SDS011;47227;46.752;23.576;2023-12-20T04:42:25;29.50;;;10.90;;
61356;SDS011;47227;46.752;23.576;2023-12-20T04:44:54;25.70;;;11.80;;
61356;SDS011;47227;46.752;23.576;2023-12-20T04:47:22;30.10;;;11.80;;
61356;SDS011;47227;46.752;23.576;2023-12-20T04:49:51;27.90;;;10.40;;
61356;SDS011;47227;46.752;23.576;2023-12-20T04:52:19;24.30;;;10.50;;
61356;SDS011;47227;46.752;23.576;2023-12-20T04:54:48;26.20;;;11.60;;
61356;SDS011;47227;46.752;23.576;2023-12-20T04:57:16;25.30;;;11.10;;
61356;SDS011;47227;46.752;23.576;2023-12-20T04:59:45;29.50;;;11.40;;
61356;SDS011;47227;46.752;23.576;2023-12-20T05:02:13;27.10;;;12.00;;
61356;SDS011;47227;46.752;23.576;2023-12-20T05:04:42;31.00;;;11.30;;
61356;SDS011;47227;46.752;23.576;2023-12-20T05:07:10;27.20;;;11.90;;
61356;SDS011;47227;46.752;23.576;2023-12-20T05:09:39;24.60;;;11.10;;
61356;SDS011;47227;46.752;23.576;2023-12-20T05:12:08;22.70;;;11.00;;
61356;SDS011;47227;46.752;23.576;2023-12-20T05:14:36;29.40;;;9.80;;
61356;SDS011;47227;46.752;23.576;2023-12-20T05:17:05;36.00;;;12.00;;
61356;SDS011;47227;46.752;23.576;2023-12-20T05:19:33;30.00;;;11.00;;
61356;SDS011;47227;46.752;23.576;2023-12-20T05:22:05;24.40;;;10.80;;
61356;SDS011;47227;46.752;23.576;2023-12-20T05:24:33;25.50;;;11.00;;
61356;SDS011;47227;46.752;23.576;2023-12-20T05:27:02;23.80;;;11.00;;
61356;SDS011;47227;46.752;23.576;2023-12-20T05:29:31;24.00;;;10.20;;
61356;SDS011;47227;46.752;23.576;2023-12-20T05:31:59;26.70;;;10.90;;
61356;SDS011;47227;46.752;23.576;2023-12-20T05:34:28;28.20;;;11.30;;
61356;SDS011;47227;46.752;23.576;2023-12-20T05:36:57;27.30;;;11.80;;
61356;SDS011;47227;46.752;23.576;2023-12-20T05:39:26;24.50;;;10.90;;
61356;SDS011;47227;46.752;23.576;2023-12-20T05:41:54;25.60;;;11.30;;
61356;SDS011;47227;46.752;23.576;2023-12-20T05:44:23;29.00;;;11.60;;
61356;SDS011;47227;46.752;23.576;2023-12-20T05:46:51;26.70;;;10.80;;
61356;SDS011;47227;46.752;23.576;2023-12-20T05:49:20;29.00;;;11.00;;
61356;SDS011;47227;46.752;23.576;2023-12-20T05:51:50;28.40;;;11.50;;
61356;SDS011;47227;46.752;23.576;2023-12-20T05:54:19;34.80;;;12.00;;
61356;SDS011;47227;46.752;23.576;2023-12-20T05:56:48;31.30;;;11.60;;
61356;SDS011;47227;46.752;23.576;2023-12-20T05:59:17;28.10;;;11.20;;
61356;SDS011;47227;46.752;23.576;2023-12-20T06:01:45;24.70;;;10.80;;
61356;SDS011;47227;46.752;23.576;2023-12-20T06:04:14;27.90;;;10.90;;
61356;SDS011;47227;46.752;23.576;2023-12-20T06:06:43;23.90;;;10.90;;
61356;SDS011;47227;46.752;23.576;2023-12-20T06:09:12;23.50;;;11.60;;
61356;SDS011;47227;46.752;23.576;2023-12-20T06:11:40;21.80;;;9.90;;
61356;SDS011;47227;46.752;23.576;2023-12-20T06:14:09;25.50;;;10.80;;
61356;SDS011;47227;46.752;23.576;2023-12-20T06:16:37;24.20;;;10.70;;
61356;SDS011;47227;46.752;23.576;2023-12-20T06:19:06;32.00;;;11.70;;
61356;SDS011;47227;46.752;23.576;2023-12-20T06:21:34;24.30;;;10.80;;
61356;SDS011;47227;46.752;23.576;2023-12-20T06:24:05;26.10;;;10.90;;
61356;SDS011;47227;46.752;23.576;2023-12-20T06:26:34;27.00;;;11.60;;
61356;SDS011;47227;46.752;23.576;2023-12-20T06:29:02;35.20;;;11.60;;
61356;SDS011;47227;46.752;23.576;2023-12-20T06:31:31;38.90;;;12.20;;
61356;SDS011;47227;46.752;23.576;2023-12-20T06:34:01;38.40;;;13.00;;
61356;SDS011;47227;46.752;23.576;2023-12-20T06:36:30;56.40;;;13.70;;
61356;SDS011;47227;46.752;23.576;2023-12-20T06:38:58;28.00;;;10.30;;
61356;SDS011;47227;46.752;23.576;2023-12-20T06:41:27;30.20;;;11.30;;
61356;SDS011;47227;46.752;23.576;2023-12-20T06:43:56;27.30;;;11.40;;
61356;SDS011;47227;46.752;23.576;2023-12-20T06:46:24;36.90;;;11.10;;
61356;SDS011;47227;46.752;23.576;2023-12-20T06:48:53;41.20;;;10.80;;
61356;SDS011;47227;46.752;23.576;2023-12-20T06:51:22;39.50;;;11.40;;
61356;SDS011;47227;46.752;23.576;2023-12-20T06:53:53;28.10;;;11.60;;
61356;SDS011;47227;46.752;23.576;2023-12-20T06:56:22;33.10;;;11.90;;
61356;SDS011;47227;46.752;23.576;2023-12-20T06:58:51;38.50;;;14.20;;
61356;SDS011;47227;46.752;23.576;2023-12-20T07:01:19;36.50;;;13.80;;
61356;SDS011;47227;46.752;23.576;2023-12-20T07:03:51;31.30;;;14.50;;
61356;SDS011;47227;46.752;23.576;2023-12-20T07:06:19;43.90;;;14.40;;
61356;SDS011;47227;46.752;23.576;2023-12-20T07:08:50;36.30;;;14.80;;
61356;SDS011;47227;46.752;23.576;2023-12-20T07:11:20;34.50;;;14.70;;
61356;SDS011;47227;46.752;23.576;2023-12-20T07:13:48;35.30;;;13.60;;
61356;SDS011;47227;46.752;23.576;2023-12-20T07:16:18;53.90;;;18.00;;
61356;SDS011;47227;46.752;23.576;2023-12-20T07:18:46;46.20;;;17.50;;
61356;SDS011;47227;46.752;23.576;2023-12-20T07:21:15;47.30;;;18.80;;
61356;SDS011;47227;46.752;23.576;2023-12-20T07:23:44;53.40;;;18.50;;
61356;SDS011;47227;46.752;23.576;2023-12-20T07:26:12;46.90;;;19.50;;
61356;SDS011;47227;46.752;23.576;2023-12-20T07:28:41;43.20;;;17.70;;
61356;SDS011;47227;46.752;23.576;2023-12-20T07:31:10;52.10;;;20.60;;
61356;SDS011;47227;46.752;23.576;2023-12-20T07:33:39;46.20;;;19.40;;
61356;SDS011;47227;46.752;23.576;2023-12-20T07:36:07;43.00;;;17.00;;
61356;SDS011;47227;46.752;23.576;2023-12-20T07:38:36;40.10;;;16.80;;
61356;SDS011;47227;46.752;23.576;2023-12-20T07:41:05;45.80;;;18.20;;
61356;SDS011;47227;46.752;23.576;2023-12-20T07:43:33;41.20;;;17.30;;
61356;SDS011;47227;46.752;23.576;2023-12-20T07:46:06;39.70;;;17.20;;
61356;SDS011;47227;46.752;23.576;2023-12-20T07:48:35;39.00;;;16.60;;
61356;SDS011;47227;46.752;23.576;2023-12-20T07:51:04;46.70;;;17.50;;
61356;SDS011;47227;46.752;23.576;2023-12-20T07:53:37;48.10;;;18.20;;
61356;SDS011;47227;46.752;23.576;2023-12-20T07:56:16;42.30;;;16.80;;
61356;SDS011;47227;46.752;23.576;2023-12-20T07:58:46;38.30;;;16.20;;
61356;SDS011;47227;46.752;23.576;2023-12-20T08:01:20;43.50;;;16.40;;
61356;SDS011;47227;46.752;23.576;2023-12-20T08:03:50;37.80;;;16.80;;
61356;SDS011;47227;46.752;23.576;2023-12-20T08:06:19;44.60;;;18.00;;
61356;SDS011;47227;46.752;23.576;2023-12-20T08:08:48;41.40;;;15.80;;
61356;SDS011;47227;46.752;23.576;2023-12-20T08:11:28;41.50;;;16.90;;
61356;SDS011;47227;46.752;23.576;2023-12-20T08:13:58;34.40;;;15.30;;
61356;SDS011;47227;46.752;23.576;2023-12-20T08:16:26;35.90;;;16.80;;
61356;SDS011;47227;46.752;23.576;2023-12-20T08:18:55;41.60;;;17.80;;
61356;SDS011;47227;46.752;23.576;2023-12-20T08:21:24;38.30;;;16.80;;
61356;SDS011;47227;46.752;23.576;2023-12-20T08:23:52;38.80;;;16.40;;
61356;SDS011;47227;46.752;23.576;2023-12-20T08:26:21;40.40;;;17.60;;
61356;SDS011;47227;46.752;23.576;2023-12-20T08:28:51;37.20;;;17.30;;
61356;SDS011;47227;46.752;23.576;2023-12-20T08:31:19;41.70;;;18.20;;
61356;SDS011;47227;46.752;23.576;2023-12-20T08:33:49;35.80;;;16.40;;
61356;SDS011;47227;46.752;23.576;2023-12-20T08:36:19;41.20;;;17.50;;
61356;SDS011;47227;46.752;23.576;2023-12-20T08:38:49;41.40;;;18.00;;
61356;SDS011;47227;46.752;23.576;2023-12-20T08:41:18;42.00;;;18.50;;
61356;SDS011;47227;46.752;23.576;2023-12-20T08:43:48;38.90;;;16.60;;
61356;SDS011;47227;46.752;23.576;2023-12-20T08:46:17;45.00;;;19.00;;
61356;SDS011;47227;46.752;23.576;2023-12-20T08:48:46;44.30;;;19.30;;
61356;SDS011;47227;46.752;23.576;2023-12-20T08:51:15;47.10;;;19.60;;
61356;SDS011;47227;46.752;23.576;2023-12-20T08:53:43;51.40;;;21.40;;
61356;SDS011;47227;46.752;23.576;2023-12-20T08:56:13;46.80;;;19.90;;
61356;SDS011;47227;46.752;23.576;2023-12-20T08:58:42;36.70;;;18.30;;
61356;SDS011;47227;46.752;23.576;2023-12-20T09:01:11;48.10;;;21.10;;
61356;SDS011;47227;46.752;23.576;2023-12-20T09:03:39;46.60;;;20.50;;
61356;SDS011;47227;46.752;23.576;2023-12-20T09:06:08;43.40;;;18.70;;
61356;SDS011;47227;46.752;23.576;2023-12-20T09:08:37;49.20;;;19.40;;
61356;SDS011;47227;46.752;23.576;2023-12-20T09:11:06;38.20;;;18.20;;
61356;SDS011;47227;46.752;23.576;2023-12-20T09:13:35;49.30;;;20.80;;
61356;SDS011;47227;46.752;23.576;2023-12-20T09:16:04;41.10;;;17.80;;
61356;SDS011;47227;46.752;23.576;2023-12-20T09:18:32;35.90;;;16.90;;
61356;SDS011;47227;46.752;23.576;2023-12-20T09:21:01;38.60;;;17.70;;
61356;SDS011;47227;46.752;23.576;2023-12-20T09:23:30;34.50;;;17.00;;
61356;SDS011;47227;46.752;23.576;2023-12-20T09:25:58;37.80;;;17.10;;
61356;SDS011;47227;46.752;23.576;2023-12-20T09:28:27;47.10;;;18.00;;
61356;SDS011;47227;46.752;23.576;2023-12-20T09:30:55;39.30;;;18.60;;
61356;SDS011;47227;46.752;23.576;2023-12-20T09:33:24;37.90;;;17.20;;
61356;SDS011;47227;46.752;23.576;2023-12-20T09:35:53;39.60;;;18.70;;
61356;SDS011;47227;46.752;23.576;2023-12-20T09:38:22;41.70;;;19.20;;
61356;SDS011;47227;46.752;23.576;2023-12-20T09:40:50;45.70;;;19.70;;
61356;SDS011;47227;46.752;23.576;2023-12-20T09:43:19;39.80;;;20.30;;
61356;SDS011;47227;46.752;23.576;2023-12-20T09:45:48;44.30;;;19.80;;
61356;SDS011;47227;46.752;23.576;2023-12-20T09:48:21;44.70;;;20.10;;
61356;SDS011;47227;46.752;23.576;2023-12-20T09:50:50;49.00;;;21.00;;
61356;SDS011;47227;46.752;23.576;2023-12-20T09:53:21;46.70;;;19.50;;
61356;SDS011;47227;46.752;23.576;2023-12-20T09:55:51;46.80;;;22.00;;
61356;SDS011;47227;46.752;23.576;2023-12-20T09:58:21;46.10;;;21.50;;
61356;SDS011;47227;46.752;23.576;2023-12-20T10:00:50;51.20;;;20.40;;
61356;SDS011;47227;46.752;23.576;2023-12-20T10:03:21;48.50;;;22.50;;
61356;SDS011;47227;46.752;23.576;2023-12-20T10:05:56;53.00;;;22.90;;
61356;SDS011;47227;46.752;23.576;2023-12-20T10:08:26;54.60;;;22.90;;
61356;SDS011;47227;46.752;23.576;2023-12-20T10:10:55;50.10;;;22.20;;
61356;SDS011;47227;46.752;23.576;2023-12-20T10:13:25;47.10;;;21.80;;
61356;SDS011;47227;46.752;23.576;2023-12-20T10:15:54;42.50;;;20.90;;
61356;SDS011;47227;46.752;23.576;2023-12-20T10:18:24;44.20;;;21.80;;
61356;SDS011;47227;46.752;23.576;2023-12-20T10:21:06;44.90;;;20.80;;
61356;SDS011;47227;46.752;23.576;2023-12-20T10:23:39;48.40;;;22.20;;
61356;SDS011;47227;46.752;23.576;2023-12-20T10:26:08;48.90;;;21.50;;
61356;SDS011;47227;46.752;23.576;2023-12-20T10:28:38;50.40;;;22.70;;
61356;SDS011;47227;46.752;23.576;2023-12-20T10:31:07;48.60;;;21.70;;
61356;SDS011;47227;46.752;23.576;2023-12-20T10:33:36;47.90;;;21.70;;
61356;SDS011;47227;46.752;23.576;2023-12-20T10:36:05;46.20;;;23.30;;
61356;SDS011;47227;46.752;23.576;2023-12-20T10:38:34;46.20;;;21.20;;
61356;SDS011;47227;46.752;23.576;2023-12-20T10:41:07;48.40;;;23.50;;
61356;SDS011;47227;46.752;23.576;2023-12-20T10:43:38;46.10;;;21.90;;
61356;SDS011;47227;46.752;23.576;2023-12-20T10:46:07;51.60;;;22.90;;
61356;SDS011;47227;46.752;23.576;2023-12-20T10:48:36;49.50;;;23.70;;
61356;SDS011;47227;46.752;23.576;2023-12-20T10:51:07;49.40;;;24.10;;
61356;SDS011;47227;46.752;23.576;2023-12-20T10:53:36;53.50;;;26.00;;
61356;SDS011;47227;46.752;23.576;2023-12-20T10:56:08;47.80;;;24.20;;
61356;SDS011;47227;46.752;23.576;2023-12-20T10:58:42;54.30;;;24.90;;
61356;SDS011;47227;46.752;23.576;2023-12-20T11:01:13;59.00;;;25.20;;
61356;SDS011;47227;46.752;23.576;2023-12-20T11:03:52;49.30;;;24.70;;
61356;SDS011;47227;46.752;23.576;2023-12-20T11:06:29;46.50;;;23.50;;
61356;SDS011;47227;46.752;23.576;2023-12-20T11:14:46;63.00;;;26.30;;
61356;SDS011;47227;46.752;23.576;2023-12-20T11:17:17;51.40;;;24.30;;
61356;SDS011;47227;46.752;23.576;2023-12-20T11:22:21;50.40;;;27.30;;
61356;SDS011;47227;46.752;23.576;2023-12-20T11:24:51;68.30;;;30.60;;
61356;SDS011;47227;46.752;23.576;2023-12-20T11:27:21;64.70;;;30.00;;
61356;SDS011;47227;46.752;23.576;2023-12-20T11:29:54;54.80;;;27.60;;
61356;SDS011;47227;46.752;23.576;2023-12-20T11:37:37;52.60;;;25.80;;
61356;SDS011;47227;46.752;23.576;2023-12-20T11:40:12;48.20;;;24.30;;
61356;SDS011;47227;46.752;23.576;2023-12-20T11:42:46;48.50;;;24.30;;
61356;SDS011;47227;46.752;23.576;2023-12-20T11:45:18;46.80;;;24.10;;
61356;SDS011;47227;46.752;23.576;2023-12-20T11:47:50;47.10;;;23.90;;
61356;SDS011;47227;46.752;23.576;2023-12-20T11:50:20;47.10;;;24.00;;
61356;SDS011;47227;46.752;23.576;2023-12-20T11:52:51;46.30;;;22.10;;
61356;SDS011;47227;46.752;23.576;2023-12-20T11:55:21;41.20;;;21.00;;
61356;SDS011;47227;46.752;23.576;2023-12-20T11:57:51;37.70;;;21.20;;
61356;SDS011;47227;46.752;23.576;2023-12-20T12:00:21;39.90;;;21.20;;
61356;SDS011;47227;46.752;23.576;2023-12-20T12:02:56;40.40;;;20.60;;
61356;SDS011;47227;46.752;23.576;2023-12-20T12:05:25;40.00;;;21.60;;
61356;SDS011;47227;46.752;23.576;2023-12-20T12:07:54;32.20;;;20.20;;
61356;SDS011;47227;46.752;23.576;2023-12-20T12:10:23;42.80;;;21.90;;
61356;SDS011;47227;46.752;23.576;2023-12-20T12:12:51;38.40;;;21.10;;
61356;SDS011;47227;46.752;23.576;2023-12-20T12:15:20;37.30;;;21.00;;
61356;SDS011;47227;46.752;23.576;2023-12-20T12:17:56;48.50;;;21.00;;
61356;SDS011;47227;46.752;23.576;2023-12-20T12:20:25;45.60;;;22.40;;
61356;SDS011;47227;46.752;23.576;2023-12-20T12:23:01;49.10;;;22.40;;
61356;SDS011;47227;46.752;23.576;2023-12-20T12:25:30;44.50;;;22.80;;
61356;SDS011;47227;46.752;23.576;2023-12-20T12:28:00;44.30;;;21.90;;
61356;SDS011;47227;46.752;23.576;2023-12-20T12:30:29;40.40;;;22.40;;
61356;SDS011;47227;46.752;23.576;2023-12-20T12:33:06;58.20;;;26.90;;
61356;SDS011;47227;46.752;23.576;2023-12-20T12:35:35;47.80;;;25.90;;
61356;SDS011;47227;46.752;23.576;2023-12-20T12:38:03;52.60;;;26.00;;
61356;SDS011;47227;46.752;23.576;2023-12-20T12:40:34;55.20;;;25.70;;
61356;SDS011;47227;46.752;23.576;2023-12-20T12:43:06;51.70;;;26.20;;
61356;SDS011;47227;46.752;23.576;2023-12-20T12:45:35;45.40;;;24.10;;
61356;SDS011;47227;46.752;23.576;2023-12-20T12:48:04;42.70;;;24.00;;
61356;SDS011;47227;46.752;23.576;2023-12-20T12:50:33;41.20;;;24.10;;
61356;SDS011;47227;46.752;23.576;2023-12-20T12:53:02;40.40;;;23.10;;
61356;SDS011;47227;46.752;23.576;2023-12-20T12:55:31;45.30;;;23.70;;
61356;SDS011;47227;46.752;23.576;2023-12-20T12:58:00;50.50;;;26.00;;
61356;SDS011;47227;46.752;23.576;2023-12-20T13:00:29;50.20;;;25.20;;
61356;SDS011;47227;46.752;23.576;2023-12-20T13:02:57;57.70;;;26.80;;
61356;SDS011;47227;46.752;23.576;2023-12-20T13:05:26;48.60;;;26.50;;
61356;SDS011;47227;46.752;23.576;2023-12-20T13:07:54;48.80;;;24.60;;
61356;SDS011;47227;46.752;23.576;2023-12-20T13:10:23;43.90;;;25.20;;
61356;SDS011;47227;46.752;23.576;2023-12-20T13:12:53;48.40;;;26.00;;
61356;SDS011;47227;46.752;23.576;2023-12-20T13:15:26;48.00;;;26.50;;
61356;SDS011;47227;46.752;23.576;2023-12-20T13:17:54;51.20;;;28.70;;
61356;SDS011;47227;46.752;23.576;2023-12-20T13:20:23;54.70;;;30.20;;
61356;SDS011;47227;46.752;23.576;2023-12-20T13:22:52;52.80;;;30.00;;
61356;SDS011;47227;46.752;23.576;2023-12-20T13:25:20;54.50;;;29.20;;
61356;SDS011;47227;46.752;23.576;2023-12-20T13:27:49;49.30;;;26.80;;
61356;SDS011;47227;46.752;23.576;2023-12-20T13:30:18;49.50;;;27.50;;
61356;SDS011;47227;46.752;23.576;2023-12-20T13:32:46;56.50;;;28.10;;
61356;SDS011;47227;46.752;23.576;2023-12-20T13:35:15;44.80;;;25.10;;
61356;SDS011;47227;46.752;23.576;2023-12-20T13:37:44;44.40;;;25.80;;
61356;SDS011;47227;46.752;23.576;2023-12-20T13:40:13;53.10;;;25.40;;
61356;SDS011;47227;46.752;23.576;2023-12-20T13:42:43;48.90;;;25.50;;
61356;SDS011;47227;46.752;23.576;2023-12-20T13:45:12;55.20;;;28.80;;
61356;SDS011;47227;46.752;23.576;2023-12-20T13:47:40;51.20;;;26.80;;
61356;SDS011;47227;46.752;23.576;2023-12-20T13:50:09;51.90;;;27.00;;
61356;SDS011;47227;46.752;23.576;2023-12-20T13:52:38;54.70;;;25.90;;
61356;SDS011;47227;46.752;23.576;2023-12-20T13:55:07;43.50;;;24.80;;
61356;SDS011;47227;46.752;23.576;2023-12-20T13:57:37;48.80;;;26.80;;
61356;SDS011;47227;46.752;23.576;2023-12-20T14:00:22;48.60;;;26.90;;
61356;SDS011;47227;46.752;23.576;2023-12-20T14:02:51;49.30;;;27.00;;
61356;SDS011;47227;46.752;23.576;2023-12-20T14:05:19;52.80;;;27.40;;
61356;SDS011;47227;46.752;23.576;2023-12-20T14:07:53;49.50;;;27.90;;
61356;SDS011;47227;46.752;23.576;2023-12-20T14:10:22;55.10;;;29.00;;
61356;SDS011;47227;46.752;23.576;2023-12-20T14:12:52;51.40;;;27.80;;
61356;SDS011;47227;46.752;23.576;2023-12-20T14:15:21;49.60;;;27.90;;
61356;SDS011;47227;46.752;23.576;2023-12-20T14:17:50;56.00;;;29.00;;
61356;SDS011;47227;46.752;23.576;2023-12-20T14:20:19;57.30;;;29.00;;
61356;SDS011;47227;46.752;23.576;2023-12-20T14:22:47;54.10;;;29.60;;
61356;SDS011;47227;46.752;23.576;2023-12-20T14:25:17;56.70;;;28.80;;
61356;SDS011;47227;46.752;23.576;2023-12-20T14:27:45;55.00;;;29.00;;
61356;SDS011;47227;46.752;23.576;2023-12-20T14:30:15;57.60;;;29.50;;
61356;SDS011;47227;46.752;23.576;2023-12-20T14:32:45;63.20;;;30.20;;
61356;SDS011;47227;46.752;23.576;2023-12-20T14:35:16;55.50;;;29.40;;